Lakeville, Pennsylvania
Current Conditions -  °F | °C
As of 11:53 PM on Friday 24 Oct 2014 (Local Time) from KMPO Reporting Station
Clear Clear  
Wind Chill: 42°   Ceiling: Unl
Heat Index: 48°   Visibility: 10mi
Dew Point: 30°   Wind: 14mph
Humidity: 50%   Direction: 320°NW
Pressure: 29.87"   Gusts: 21mph
Location:  41.43°N, 75.27°W
Report Text: KMPO 250353Z AUTO 32012G18KT 10SM CLR 09/M01 A2987 RMK AO2 SLP119 T00891011
Loading
Personal Weather Stations






























Interactive Weather Map
Tropical Storm Tracking
New forecast layout! Learn more

10-Day Weather Forecast

Advertisements
Track Severe Weather on mobile